createdAt,value
2018-07-22T00:01:16.869Z,37.80
2018-07-22T00:03:45.933Z,38.53
2018-07-22T00:06:21.110Z,41.23
2018-07-22T00:08:50.525Z,41.37
2018-07-22T00:11:22.655Z,40.80
2018-07-22T00:13:52.763Z,32.00
2018-07-22T00:16:25.312Z,32.47
2018-07-22T00:18:54.101Z,30.20
2018-07-22T00:21:24.214Z,24.27
2018-07-22T00:23:54.718Z,28.23
2018-07-22T00:26:24.377Z,30.00
2018-07-22T00:28:53.146Z,31.40
2018-07-22T00:33:49.795Z,31.67
2018-07-22T00:36:18.768Z,30.90
2018-07-22T00:38:47.440Z,27.80
2018-07-22T00:41:16.461Z,24.03
2018-07-22T00:43:50.276Z,26.13
2018-07-22T00:46:18.997Z,22.87
2018-07-22T00:48:47.582Z,15.33
2018-07-22T00:51:16.243Z,12.43
2018-07-22T00:53:44.875Z,8.40
2018-07-22T00:56:18.555Z,9.13
2018-07-22T00:58:48.223Z,8.73
2018-07-22T01:01:17.939Z,6.83
2018-07-22T01:03:57.422Z,6.67
2018-07-22T01:06:26.488Z,7.40
2018-07-22T01:08:56.574Z,6.57
2018-07-22T01:11:25.704Z,6.50
2018-07-22T01:13:54.302Z,7.33
2018-07-22T01:16:22.928Z,7.40
2018-07-22T01:18:51.606Z,6.80
2018-07-22T01:21:20.473Z,9.20
2018-07-22T01:23:55.380Z,7.27
2018-07-22T01:26:24.019Z,7.30
2018-07-22T01:28:53.764Z,6.30
2018-07-22T01:31:33.112Z,6.90
2018-07-22T01:34:03.432Z,5.40
2018-07-22T01:36:35.833Z,5.30
2018-07-22T01:39:06.645Z,5.50
2018-07-22T01:41:35.147Z,4.57
2018-07-22T01:44:04.935Z,6.10
2018-07-22T01:46:33.545Z,6.93
2018-07-22T01:49:02.436Z,8.30
2018-07-22T01:51:31.532Z,13.10
2018-07-22T01:54:10.948Z,11.97
2018-07-22T01:56:44.888Z,20.67
2018-07-22T01:59:13.400Z,20.30
2018-07-22T02:01:41.930Z,24.67
2018-07-22T02:04:10.477Z,25.47
2018-07-22T02:06:40.641Z,25.57
2018-07-22T02:09:10.306Z,25.77
2018-07-22T02:11:42.791Z,24.90
2018-07-22T02:14:11.278Z,24.60
2018-07-22T02:16:40.285Z,24.87
2018-07-22T02:19:08.776Z,25.40
2018-07-22T02:21:37.332Z,23.20
2018-07-22T02:24:06.772Z,22.50
2018-07-22T02:26:35.683Z,22.10
2018-07-22T02:29:04.195Z,23.13
2018-07-22T02:31:32.731Z,24.10
2018-07-22T02:34:02.995Z,24.17
2018-07-22T02:36:40.888Z,25.60
2018-07-22T02:39:11.692Z,25.50
2018-07-22T02:41:40.313Z,26.20
2018-07-22T02:44:09.160Z,27.87
2018-07-22T02:46:38.049Z,29.47
2018-07-22T02:49:06.642Z,27.63
2018-07-22T02:51:35.679Z,28.17
2018-07-22T02:54:04.898Z,31.20
2018-07-22T02:56:33.616Z,32.30
2018-07-22T02:59:05.256Z,30.43
2018-07-22T03:01:36.007Z,29.43
2018-07-22T03:04:06.159Z,31.33
2018-07-22T03:06:34.926Z,33.13
2018-07-22T03:09:09.681Z,32.33
2018-07-22T03:11:38.287Z,32.30
2018-07-22T03:14:07.042Z,33.87
2018-07-22T03:16:36.113Z,31.03
2018-07-22T03:19:04.735Z,31.13
2018-07-22T03:21:33.552Z,33.90
2018-07-22T03:26:38.739Z,39.23
2018-07-22T03:29:08.115Z,39.47
2018-07-22T03:31:36.623Z,42.77
2018-07-22T03:34:11.013Z,41.43
2018-07-22T03:36:39.539Z,39.60
2018-07-22T03:39:12.316Z,34.57
2018-07-22T03:41:41.661Z,34.97
2018-07-22T03:44:10.255Z,35.60
2018-07-22T03:46:38.879Z,34.47
2018-07-22T03:49:07.346Z,35.83
2018-07-22T03:51:35.909Z,37.53
2018-07-22T03:54:05.336Z,37.07
2018-07-22T03:56:34.336Z,36.53
2018-07-22T03:59:02.880Z,35.27
2018-07-22T04:01:33.815Z,32.20
2018-07-22T04:04:04.275Z,33.40
2018-07-22T04:06:32.800Z,35.20
2018-07-22T04:09:06.532Z,32.33
2018-07-22T04:11:35.950Z,36.47
2018-07-22T04:14:15.986Z,36.80
2018-07-22T04:16:44.560Z,36.53
2018-07-22T04:19:13.817Z,35.43
2018-07-22T04:21:42.404Z,29.83
2018-07-22T04:24:10.916Z,25.97
2018-07-22T04:26:39.486Z,21.20
2018-07-22T04:29:14.040Z,19.90
2018-07-22T04:31:42.602Z,19.63
2018-07-22T04:34:11.861Z,17.77
2018-07-22T04:36:45.732Z,16.90
2018-07-22T04:39:14.235Z,17.90
2018-07-22T04:41:42.740Z,19.70
2018-07-22T04:44:11.357Z,17.80
2018-07-22T04:46:39.916Z,19.00
2018-07-22T04:49:08.819Z,16.70
2018-07-22T04:51:38.909Z,16.90
2018-07-22T04:54:07.475Z,15.20
2018-07-22T04:56:35.953Z,16.67
2018-07-22T04:59:04.495Z,16.73
2018-07-22T05:01:32.998Z,14.57
2018-07-22T05:04:02.145Z,14.40
2018-07-22T05:06:36.534Z,13.40
2018-07-22T05:09:08.457Z,11.23
2018-07-22T05:11:37.387Z,10.93
2018-07-22T05:14:06.007Z,11.30
2018-07-22T05:16:38.058Z,10.40
2018-07-22T05:19:06.939Z,9.67
2018-07-22T05:21:35.513Z,9.50
2018-07-22T05:24:04.708Z,10.00
2018-07-22T05:26:33.292Z,8.97
2018-07-22T05:29:07.771Z,9.07
2018-07-22T05:31:36.767Z,10.30
2018-07-22T05:34:05.667Z,10.73
2018-07-22T05:36:34.255Z,10.07
2018-07-22T05:39:02.843Z,119.47
2018-07-22T05:41:31.432Z,13.47
2018-07-22T05:44:06.290Z,8.87
2018-07-22T05:46:35.049Z,9.63
2018-07-22T05:49:04.208Z,9.63
2018-07-22T05:51:33.057Z,10.13
2018-07-22T05:54:02.618Z,9.50
2018-07-22T05:56:31.200Z,9.70
2018-07-22T05:58:59.758Z,11.07
2018-07-22T06:01:31.429Z,12.27
2018-07-22T06:04:01.073Z,11.73
2018-07-22T06:06:30.538Z,12.90
2018-07-22T06:08:59.107Z,12.27
2018-07-22T06:11:29.990Z,11.83
2018-07-22T06:13:58.571Z,12.00
2018-07-22T06:16:30.819Z,12.37
2018-07-22T06:18:59.915Z,12.70
2018-07-22T06:21:28.480Z,10.37
2018-07-22T06:23:57.067Z,9.67
2018-07-22T06:26:30.842Z,10.90
2018-07-22T06:28:59.494Z,11.07
2018-07-22T06:31:28.136Z,10.77
2018-07-22T06:33:59.309Z,9.70
2018-07-22T06:36:33.745Z,10.97
2018-07-22T06:39:06.275Z,11.40
2018-07-22T06:41:36.534Z,11.17
2018-07-22T06:44:05.796Z,10.73
2018-07-22T06:46:34.412Z,12.27
2018-07-22T06:49:03.591Z,12.40
2018-07-22T06:51:32.116Z,12.43
2018-07-22T06:54:00.909Z,12.07
2018-07-22T06:56:37.135Z,12.37
2018-07-22T06:59:05.716Z,12.73
2018-07-22T07:01:34.270Z,12.70
2018-07-22T07:04:03.328Z,13.70
2018-07-22T07:06:33.542Z,13.37
2018-07-22T07:09:02.128Z,13.73
2018-07-22T07:11:34.371Z,12.80
2018-07-22T07:14:04.350Z,10.63
2018-07-22T07:16:32.894Z,13.00
2018-07-22T07:19:01.496Z,12.87
2018-07-22T07:21:30.355Z,12.80
2018-07-22T07:23:59.374Z,12.10
2018-07-22T07:26:28.021Z,14.70
2018-07-22T07:28:56.543Z,14.80
2018-07-22T07:31:25.447Z,13.30
2018-07-22T07:33:54.259Z,15.07
2018-07-22T07:36:26.789Z,13.33
2018-07-22T07:38:55.435Z,13.00
2018-07-22T07:41:24.111Z,14.60
2018-07-22T07:43:53.651Z,13.90
2018-07-22T07:46:22.858Z,12.87
2018-07-22T07:48:51.946Z,13.07
2018-07-22T07:51:21.008Z,14.30
2018-07-22T07:53:56.353Z,14.10
2018-07-22T07:56:25.428Z,15.23
2018-07-22T07:58:54.082Z,13.47
2018-07-22T08:01:23.169Z,13.43
2018-07-22T08:03:51.792Z,15.03
2018-07-22T08:06:20.490Z,15.20
2018-07-22T08:08:49.128Z,14.00
2018-07-22T08:11:18.130Z,15.47
2018-07-22T08:13:52.656Z,15.30
2018-07-22T08:16:21.424Z,15.90
2018-07-22T08:18:50.301Z,14.50
2018-07-22T08:21:18.837Z,15.40
2018-07-22T08:23:47.386Z,15.60
2018-07-22T08:26:17.367Z,15.13
2018-07-22T08:29:27.659Z,19.07
2018-07-22T08:31:56.802Z,16.20
2018-07-22T08:34:25.432Z,16.30
2018-07-22T08:36:54.031Z,16.20
2018-07-22T08:39:25.543Z,17.00
2018-07-22T08:41:55.244Z,16.87
2018-07-22T08:44:24.128Z,18.37
2018-07-22T08:46:58.701Z,18.33
2018-07-22T08:49:27.615Z,18.37
2018-07-22T08:51:56.266Z,18.40
2018-07-22T08:54:25.407Z,17.77
2018-07-22T08:56:54.434Z,17.40
2018-07-22T08:59:23.018Z,17.47
2018-07-22T09:01:51.563Z,16.90
2018-07-22T09:04:20.133Z,16.50
2018-07-22T09:06:49.010Z,18.80
2018-07-22T09:09:17.770Z,17.43
2018-07-22T09:11:46.395Z,18.17
2018-07-22T09:14:15.234Z,18.60
2018-07-22T09:16:43.761Z,18.27
2018-07-22T09:19:12.294Z,17.80
2018-07-22T09:21:41.261Z,18.60
2018-07-22T09:24:09.764Z,18.47
2018-07-22T09:26:38.379Z,19.03
2018-07-22T09:29:07.187Z,16.00
2018-07-22T09:31:38.775Z,17.47
2018-07-22T09:34:08.090Z,18.53
2018-07-22T09:36:37.029Z,17.43
2018-07-22T09:39:12.164Z,18.87
2018-07-22T09:41:41.026Z,17.60
2018-07-22T09:44:09.603Z,21.13
2018-07-22T09:46:38.136Z,25.63
2018-07-22T09:49:06.978Z,23.47
2018-07-22T09:51:42.280Z,22.87
2018-07-22T09:54:11.078Z,26.00
2018-07-22T09:56:44.882Z,27.97
2018-07-22T09:59:13.544Z,20.93
2018-07-22T10:01:48.159Z,19.17
2018-07-22T10:04:17.250Z,20.20
2018-07-22T10:09:45.227Z,17.67
2018-07-22T10:12:19.187Z,16.43
2018-07-22T10:14:48.187Z,17.80
2018-07-22T10:17:21.716Z,17.20
2018-07-22T10:19:50.433Z,17.30
2018-07-22T10:22:21.635Z,17.10
2018-07-22T10:24:50.378Z,19.73
2018-07-22T10:27:19.561Z,20.10
2018-07-22T10:29:48.479Z,18.50
2018-07-22T10:32:17.334Z,21.87
2018-07-22T10:34:46.007Z,19.67
2018-07-22T10:37:14.586Z,20.90
2018-07-22T10:39:43.428Z,20.20
2018-07-22T10:44:45.547Z,20.30
2018-07-22T10:47:14.555Z,22.00
2018-07-22T10:49:43.155Z,20.47
2018-07-22T10:52:12.008Z,19.60
2018-07-22T10:54:41.022Z,20.73
2018-07-22T10:57:09.681Z,21.10
2018-07-22T10:59:38.460Z,21.20
2018-07-22T11:02:12.713Z,19.67
2018-07-22T11:04:41.431Z,18.47
2018-07-22T11:07:10.405Z,20.30
2018-07-22T11:09:39.455Z,19.37
2018-07-22T11:12:08.672Z,21.47
2018-07-22T11:14:37.570Z,20.67
2018-07-22T11:17:06.727Z,22.60
2018-07-22T11:19:35.281Z,22.10
2018-07-22T11:22:06.169Z,20.90
2018-07-22T11:24:37.931Z,20.50
2018-07-22T11:27:06.651Z,22.17
2018-07-22T11:29:35.631Z,22.00
2018-07-22T11:32:09.446Z,20.87
2018-07-22T11:34:38.215Z,22.47
2018-07-22T11:37:06.827Z,17.20
2018-07-22T11:39:35.687Z,18.33
2018-07-22T11:42:07.382Z,19.37
2018-07-22T11:44:38.087Z,19.80
2018-07-22T11:47:06.843Z,19.00
2018-07-22T11:49:36.385Z,17.37
2018-07-22T11:52:06.198Z,15.60
2018-07-22T11:54:35.270Z,17.90
2018-07-22T11:57:04.218Z,17.10
2018-07-22T11:59:32.801Z,15.83
2018-07-22T12:02:03.344Z,16.00
2018-07-22T12:04:32.307Z,15.67
2018-07-22T12:07:05.706Z,13.53
2018-07-22T12:09:34.832Z,13.47
2018-07-22T12:12:04.391Z,13.10
2018-07-22T12:14:33.034Z,12.50
2018-07-22T12:17:02.427Z,14.30
2018-07-22T12:19:31.046Z,11.70
2018-07-22T12:21:59.609Z,13.27
2018-07-22T12:24:28.462Z,12.37
2018-07-22T12:26:57.112Z,13.33
2018-07-22T12:29:26.088Z,13.50
2018-07-22T12:31:56.466Z,13.20
2018-07-22T12:34:25.192Z,12.30
2018-07-22T12:36:55.735Z,10.93
2018-07-22T12:39:25.100Z,13.40
2018-07-22T12:44:37.183Z,12.20
2018-07-22T12:47:07.066Z,12.63
2018-07-22T12:49:36.143Z,11.33
2018-07-22T12:52:05.532Z,11.70
2018-07-22T12:54:38.656Z,11.10
2018-07-22T12:57:07.893Z,12.60
2018-07-22T12:59:39.887Z,12.87
2018-07-22T13:02:09.089Z,13.83
2018-07-22T13:07:10.828Z,12.50
2018-07-22T13:09:39.444Z,14.30
2018-07-22T13:12:08.361Z,12.97
2018-07-22T13:14:36.975Z,14.77
2018-07-22T13:17:05.675Z,13.03
2018-07-22T13:19:34.559Z,13.03
2018-07-22T13:22:08.147Z,10.87
2018-07-22T13:24:37.343Z,12.00
2018-07-22T13:27:06.705Z,12.27
2018-07-22T13:29:35.324Z,11.43
2018-07-22T13:32:12.470Z,51.93
2018-07-22T13:34:41.084Z,13.97
2018-07-22T13:37:12.501Z,11.70
2018-07-22T13:39:41.383Z,12.10
2018-07-22T13:42:11.232Z,12.67
2018-07-22T13:44:39.921Z,11.47
2018-07-22T13:47:08.804Z,11.83
2018-07-22T13:49:37.519Z,12.67
2018-07-22T13:52:06.462Z,10.77
2018-07-22T13:54:41.354Z,11.27
2018-07-22T13:57:10.137Z,11.57
2018-07-22T13:59:42.251Z,11.30
2018-07-22T14:02:11.736Z,10.20
2018-07-22T14:04:42.697Z,10.60
2018-07-22T14:07:11.581Z,11.13
2018-07-22T14:09:41.859Z,11.00
2018-07-22T14:12:10.666Z,10.43
2018-07-22T14:14:40.853Z,11.70
2018-07-22T14:17:10.036Z,11.67
2018-07-22T14:19:40.739Z,10.97
2018-07-22T14:22:20.445Z,10.90
2018-07-22T14:24:49.067Z,12.83
2018-07-22T14:27:18.498Z,13.13
2018-07-22T14:29:47.671Z,11.77
2018-07-22T14:32:27.216Z,17.53
2018-07-22T14:34:56.397Z,7.70
2018-07-22T14:37:33.421Z,8.07
2018-07-22T14:40:03.362Z,7.90
2018-07-22T14:42:32.146Z,6.40
2018-07-22T14:45:04.072Z,6.20
2018-07-22T14:47:38.382Z,6.17
2018-07-22T14:50:07.080Z,8.63
2018-07-22T14:52:35.994Z,7.90
2018-07-22T14:55:05.272Z,7.47
2018-07-22T14:57:33.883Z,7.20
2018-07-22T15:00:08.409Z,7.43
2018-07-22T15:02:37.604Z,6.70
2018-07-22T15:05:07.805Z,6.93
2018-07-22T15:07:36.680Z,8.33
2018-07-22T15:10:06.950Z,8.77
2018-07-22T15:12:35.534Z,9.07
2018-07-22T15:15:05.842Z,7.60
2018-07-22T15:17:34.774Z,7.00
2018-07-22T15:20:05.616Z,7.87
2018-07-22T15:22:34.989Z,8.70
2018-07-22T15:25:03.914Z,8.60
2018-07-22T15:27:38.193Z,10.17
2018-07-22T15:30:07.023Z,9.90
2018-07-22T15:32:36.065Z,10.80
2018-07-22T15:35:05.452Z,14.43
2018-07-22T15:37:45.010Z,14.53
2018-07-22T15:40:13.626Z,17.30
2018-07-22T15:42:42.323Z,20.00
2018-07-22T15:45:11.094Z,18.17
2018-07-22T15:47:40.041Z,19.90
2018-07-22T15:53:06.068Z,20.77
2018-07-22T15:55:34.950Z,22.90
2018-07-22T15:58:04.394Z,21.40
2018-07-22T16:00:37.584Z,22.47
2018-07-22T16:03:06.467Z,23.60
2018-07-22T16:05:37.312Z,25.63
2018-07-22T16:08:07.122Z,30.67
2018-07-22T16:10:35.802Z,26.37
2018-07-22T16:13:04.512Z,48.83
2018-07-22T16:15:34.548Z,31.53
2018-07-22T16:18:04.612Z,25.90
2018-07-22T16:20:33.401Z,25.70
2018-07-22T16:23:02.605Z,23.63
2018-07-22T16:25:31.538Z,32.50
2018-07-22T16:28:08.665Z,29.90
2018-07-22T16:30:37.429Z,31.30
2018-07-22T16:33:06.682Z,27.57
2018-07-22T16:35:36.132Z,25.83
2018-07-22T16:38:06.809Z,22.10
2018-07-22T16:40:35.597Z,20.67
2018-07-22T16:43:20.344Z,20.03
2018-07-22T16:45:52.355Z,19.23
2018-07-22T16:48:21.603Z,19.40
2018-07-22T16:50:54.089Z,18.30
2018-07-22T16:53:22.815Z,17.30
2018-07-22T16:55:52.094Z,17.57
2018-07-22T16:58:20.755Z,19.97
2018-07-22T17:00:51.554Z,17.90
2018-07-22T17:03:20.519Z,24.10
2018-07-22T17:05:54.083Z,20.70
2018-07-22T17:08:22.738Z,18.40
2018-07-22T17:10:52.969Z,19.77
2018-07-22T17:13:21.882Z,18.67
2018-07-22T17:15:53.392Z,19.47
2018-07-22T17:18:22.501Z,18.70
2018-07-22T17:20:54.171Z,17.20
2018-07-22T17:23:23.243Z,18.57
2018-07-22T17:25:52.830Z,19.87
2018-07-22T17:28:21.609Z,17.47
2018-07-22T17:30:51.148Z,20.40
2018-07-22T17:33:19.722Z,27.50
2018-07-22T17:35:52.799Z,26.10
2018-07-22T17:38:21.490Z,16.67
2018-07-22T17:40:56.287Z,13.60
2018-07-22T17:43:25.427Z,26.73
2018-07-22T17:45:54.267Z,13.17
2018-07-22T17:48:23.241Z,16.90
2018-07-22T17:50:52.860Z,17.20
2018-07-22T17:53:21.539Z,16.60
2018-07-22T17:55:50.464Z,16.50
2018-07-22T17:58:19.182Z,17.20
2018-07-22T18:00:48.105Z,26.07
2018-07-22T18:03:34.263Z,20.77
2018-07-22T18:06:04.250Z,18.37
2018-07-22T18:08:33.835Z,15.50
2018-07-22T18:11:03.248Z,17.07
2018-07-22T18:13:43.068Z,16.90
2018-07-22T18:16:12.243Z,15.20
2018-07-22T18:18:40.869Z,15.03
2018-07-22T18:21:10.137Z,13.57
2018-07-22T18:23:40.990Z,13.03
2018-07-22T18:26:09.774Z,11.13
2018-07-22T18:28:42.583Z,15.70
2018-07-22T18:31:11.797Z,13.70
2018-07-22T18:33:40.478Z,12.07
2018-07-22T18:36:09.427Z,13.20
2018-07-22T18:38:38.184Z,13.20
2018-07-22T18:41:06.880Z,13.40
2018-07-22T18:43:35.698Z,13.10
2018-07-22T18:46:17.487Z,15.47
2018-07-22T18:48:47.465Z,16.10
2018-07-22T18:51:20.107Z,16.77
2018-07-22T18:53:48.967Z,16.50
2018-07-22T18:56:21.754Z,17.20
2018-07-22T18:58:50.299Z,17.03
2018-07-22T19:01:21.927Z,16.70
2018-07-22T19:03:50.849Z,17.23
2018-07-22T19:06:19.884Z,17.30
2018-07-22T19:08:48.637Z,15.33
2018-07-22T19:11:17.568Z,16.17
2018-07-22T19:13:46.242Z,16.70
2018-07-22T19:16:14.886Z,16.80
2018-07-22T19:18:43.836Z,17.53
2018-07-22T19:21:12.651Z,15.67
2018-07-22T19:23:41.525Z,17.03
2018-07-22T19:26:10.353Z,16.50
2018-07-22T19:28:39.061Z,18.77
2018-07-22T19:31:07.656Z,18.23
2018-07-22T19:33:36.501Z,19.80
2018-07-22T19:36:05.487Z,20.93
2018-07-22T19:38:34.039Z,21.07
2018-07-22T19:41:03.450Z,23.93
2018-07-22T19:43:43.089Z,25.00
2018-07-22T19:46:12.243Z,26.57
2018-07-22T19:48:40.965Z,29.50
2018-07-22T19:51:16.388Z,29.30
2018-07-22T19:53:45.089Z,30.50
2018-07-22T19:56:15.179Z,35.30
2018-07-22T19:58:43.766Z,33.40
2018-07-22T20:01:17.619Z,35.83
2018-07-22T20:03:46.267Z,39.07
2018-07-22T20:06:21.787Z,39.20
2018-07-22T20:08:50.591Z,34.77
2018-07-22T20:13:44.665Z,37.10
2018-07-22T20:16:18.618Z,28.57
2018-07-22T20:18:47.203Z,29.23
2018-07-22T20:21:17.257Z,28.13
2018-07-22T20:23:47.130Z,25.23
2018-07-22T20:26:15.639Z,22.10
2018-07-22T20:28:44.217Z,21.27
2018-07-22T20:31:16.470Z,20.30
2018-07-22T20:33:45.071Z,19.50
2018-07-22T20:36:17.089Z,16.67
2018-07-22T20:38:46.161Z,14.87
2018-07-22T20:41:15.479Z,14.07
2018-07-22T20:43:44.081Z,13.37
2018-07-22T20:46:17.580Z,14.47
2018-07-22T20:48:46.202Z,13.63
2018-07-22T20:51:14.748Z,12.77
2018-07-22T20:53:47.303Z,14.40
2018-07-22T20:56:15.859Z,14.10
2018-07-22T20:58:44.379Z,13.33
2018-07-22T21:01:12.952Z,13.87
2018-07-22T21:03:41.550Z,13.40
2018-07-22T21:06:10.127Z,12.90
2018-07-22T21:08:41.940Z,13.53
2018-07-22T21:11:16.485Z,13.30
2018-07-22T21:13:56.351Z,14.43
2018-07-22T21:16:27.574Z,13.03
2018-07-22T21:18:56.527Z,13.83
2018-07-22T21:21:25.624Z,13.70
2018-07-22T21:23:55.603Z,13.17
2018-07-22T21:26:24.208Z,12.77
2018-07-22T21:28:52.873Z,12.97
2018-07-22T21:31:32.459Z,11.93
2018-07-22T21:34:01.185Z,12.93
2018-07-22T21:36:35.689Z,12.53
2018-07-22T21:39:06.224Z,12.13
2018-07-22T21:41:38.120Z,12.90
2018-07-22T21:44:07.114Z,14.57
2018-07-22T21:46:35.783Z,14.10
2018-07-22T21:49:04.372Z,13.50
2018-07-22T21:51:32.968Z,14.03
2018-07-22T21:54:10.632Z,14.50
2018-07-22T21:56:45.104Z,14.57
2018-07-22T21:59:14.142Z,18.03
2018-07-22T22:01:43.376Z,18.50
2018-07-22T22:04:11.941Z,18.80
2018-07-22T22:06:40.580Z,20.43
2018-07-22T22:09:09.703Z,22.30
2018-07-22T22:11:38.616Z,24.33
2018-07-22T22:14:08.603Z,24.13
2018-07-22T22:16:37.456Z,23.90
2018-07-22T22:19:06.000Z,24.17
2018-07-22T22:21:34.581Z,24.40
2018-07-22T22:24:04.240Z,27.03
2018-07-22T22:26:33.146Z,28.90
2018-07-22T22:31:41.313Z,28.37
2018-07-22T22:34:15.888Z,28.50
2018-07-22T22:36:44.512Z,28.53
2018-07-22T22:39:13.996Z,30.07
2018-07-22T22:41:45.996Z,28.93
2018-07-22T22:44:15.195Z,26.10
2018-07-22T22:46:43.848Z,25.57
2018-07-22T22:49:14.505Z,25.70
2018-07-22T22:51:43.030Z,26.83
2018-07-22T22:54:11.908Z,26.30
2018-07-22T22:56:40.535Z,35.23
2018-07-22T22:59:20.544Z,29.43
2018-07-22T23:01:49.598Z,30.60
2018-07-22T23:04:18.292Z,31.47
2018-07-22T23:06:47.147Z,32.20
2018-07-22T23:09:16.470Z,30.77
2018-07-22T23:11:45.116Z,31.80
2018-07-22T23:14:15.644Z,32.70
2018-07-22T23:16:44.255Z,32.43
2018-07-22T23:19:12.763Z,32.80
2018-07-22T23:21:41.400Z,30.30
2018-07-22T23:24:09.883Z,35.70
2018-07-22T23:26:38.438Z,37.37
2018-07-22T23:29:07.249Z,36.43
2018-07-22T23:31:35.994Z,37.03
2018-07-22T23:34:05.719Z,34.70
2018-07-22T23:36:34.644Z,34.80
2018-07-22T23:39:05.203Z,33.77
2018-07-22T23:41:33.720Z,35.90
2018-07-22T23:44:04.233Z,32.87
2018-07-22T23:46:37.972Z,32.07
2018-07-22T23:49:06.635Z,32.83
2018-07-22T23:51:35.223Z,33.07
2018-07-22T23:54:04.940Z,34.73
2018-07-22T23:56:33.442Z,36.60
2018-07-22T23:59:07.735Z,34.80
